createdAt,value
2018-08-16T00:00:43.513Z,1005.81
2018-08-16T00:01:43.502Z,1005.79
2018-08-16T00:02:43.492Z,1005.77
2018-08-16T00:03:43.479Z,1005.76
2018-08-16T00:04:43.467Z,1005.77
2018-08-16T00:05:43.472Z,1005.78
2018-08-16T00:06:43.449Z,1005.73
2018-08-16T00:07:43.438Z,1005.77
2018-08-16T00:08:43.438Z,1005.77
2018-08-16T00:09:43.417Z,1005.75
2018-08-16T00:10:43.402Z,1005.78
2018-08-16T00:11:43.391Z,1005.74
2018-08-16T00:12:43.382Z,1005.78
2018-08-16T00:13:43.396Z,1005.76
2018-08-16T00:14:43.364Z,1005.72
2018-08-16T00:15:43.346Z,1005.74
2018-08-16T00:16:43.339Z,1005.74
2018-08-16T00:17:43.325Z,1005.75
2018-08-16T00:18:43.319Z,1005.69
2018-08-16T00:19:43.325Z,1005.69
2018-08-16T00:20:43.295Z,1005.70
2018-08-16T00:21:43.282Z,1005.68
2018-08-16T00:22:43.275Z,1005.68
2018-08-16T00:23:43.278Z,1005.72
2018-08-16T00:24:43.250Z,1005.69
2018-08-16T00:25:43.241Z,1005.69
2018-08-16T00:26:43.227Z,1005.74
2018-08-16T00:27:43.220Z,1005.69
2018-08-16T00:28:43.224Z,1005.70
2018-08-16T00:29:43.212Z,1005.71
2018-08-16T00:30:43.188Z,1005.69
2018-08-16T00:31:43.175Z,1005.70
2018-08-16T00:32:43.162Z,1005.71
2018-08-16T00:33:43.155Z,1005.71
2018-08-16T00:34:43.156Z,1005.69
2018-08-16T00:35:43.133Z,1005.69
2018-08-16T00:36:43.123Z,1005.71
2018-08-16T00:37:43.123Z,1005.68
2018-08-16T00:38:43.097Z,1005.67
2018-08-16T00:39:43.105Z,1005.67
2018-08-16T00:40:43.075Z,1005.69
2018-08-16T00:41:43.066Z,1005.65
2018-08-16T00:42:43.056Z,1005.66
2018-08-16T00:43:43.044Z,1005.68
2018-08-16T00:44:43.058Z,1005.66
2018-08-16T00:45:43.025Z,1005.66
2018-08-16T00:46:43.010Z,1005.66
2018-08-16T00:47:42.998Z,1005.65
2018-08-16T00:48:42.988Z,1005.64
2018-08-16T00:49:42.977Z,1005.64
2018-08-16T00:50:42.982Z,1005.60
2018-08-16T00:51:42.954Z,1005.64
2018-08-16T00:52:42.946Z,1005.63
2018-08-16T00:53:42.935Z,1005.61
2018-08-16T00:54:42.923Z,1005.62
2018-08-16T00:55:42.935Z,1005.64
2018-08-16T00:56:42.900Z,1005.63
2018-08-16T00:57:42.893Z,1005.63
2018-08-16T00:58:42.880Z,1005.62
2018-08-16T00:59:42.869Z,1005.59
2018-08-16T01:00:42.860Z,1005.63
2018-08-16T01:01:42.864Z,1005.61
2018-08-16T01:02:42.854Z,1005.61
2018-08-16T01:03:42.849Z,1005.63
2018-08-16T01:04:42.816Z,1005.58
2018-08-16T01:05:42.803Z,1005.57
2018-08-16T01:06:42.795Z,1005.60
2018-08-16T01:07:42.782Z,1005.60
2018-08-16T01:08:42.770Z,1005.63
2018-08-16T01:09:42.773Z,1005.63
2018-08-16T01:10:42.777Z,1005.59
2018-08-16T01:11:42.736Z,1005.60
2018-08-16T01:12:42.727Z,1005.58
2018-08-16T01:13:42.720Z,1005.60
2018-08-16T01:14:42.706Z,1005.61
2018-08-16T01:15:42.696Z,1005.60
2018-08-16T01:16:42.708Z,1005.58
2018-08-16T01:17:42.674Z,1005.58
2018-08-16T01:18:42.663Z,1005.56
2018-08-16T01:19:42.651Z,1005.57
2018-08-16T01:20:42.641Z,1005.58
2018-08-16T01:21:42.632Z,1005.59
2018-08-16T01:22:42.636Z,1005.56
2018-08-16T01:23:42.610Z,1005.56
2018-08-16T01:24:42.599Z,1005.53
2018-08-16T01:25:42.601Z,1005.56
2018-08-16T01:26:42.578Z,1005.57
2018-08-16T01:27:42.592Z,1005.57
2018-08-16T01:28:42.557Z,1005.60
2018-08-16T01:29:42.542Z,1005.56
2018-08-16T01:30:42.531Z,1005.63
2018-08-16T01:31:42.523Z,1005.62
2018-08-16T01:32:42.512Z,1005.62
2018-08-16T01:33:42.523Z,1005.63
2018-08-16T01:34:42.488Z,1005.58
2018-08-16T01:35:42.543Z,1005.63
2018-08-16T01:36:42.465Z,1005.60
2018-08-16T01:37:42.458Z,1005.58
2018-08-16T01:38:42.446Z,1005.62
2018-08-16T01:39:42.452Z,1005.55
2018-08-16T01:40:42.424Z,1005.57
2018-08-16T01:41:42.412Z,1005.62
2018-08-16T01:42:42.403Z,1005.60
2018-08-16T01:43:42.416Z,1005.64
2018-08-16T01:44:42.382Z,1005.64
2018-08-16T01:45:42.370Z,1005.63
2018-08-16T01:46:42.359Z,1005.58
2018-08-16T01:47:42.348Z,1005.60
2018-08-16T01:48:42.334Z,1005.59
2018-08-16T01:49:42.342Z,1005.58
2018-08-16T01:50:42.315Z,1005.57
2018-08-16T01:51:42.304Z,1005.59
2018-08-16T01:52:42.292Z,1005.58
2018-08-16T01:53:42.283Z,1005.58
2018-08-16T01:54:42.291Z,1005.53
2018-08-16T01:55:42.262Z,1005.50
2018-08-16T01:56:42.248Z,1005.52
2018-08-16T01:57:42.239Z,1005.54
2018-08-16T01:58:42.226Z,1005.59
2018-08-16T01:59:42.215Z,1005.51
2018-08-16T02:00:42.246Z,1005.52
2018-08-16T02:01:42.195Z,1005.51
2018-08-16T02:02:42.183Z,1005.49
2018-08-16T02:03:42.171Z,1005.50
2018-08-16T02:04:42.159Z,1005.49
2018-08-16T02:05:42.150Z,1005.48
2018-08-16T02:06:42.159Z,1005.48
2018-08-16T02:07:42.131Z,1005.45
2018-08-16T02:08:42.117Z,1005.46
2018-08-16T02:09:42.108Z,1005.49
2018-08-16T02:10:42.098Z,1005.47
2018-08-16T02:11:42.086Z,1005.49
2018-08-16T02:12:42.088Z,1005.51
2018-08-16T02:13:42.062Z,1005.49
2018-08-16T02:14:42.051Z,1005.45
2018-08-16T02:15:42.044Z,1005.47
2018-08-16T02:16:42.030Z,1005.45
2018-08-16T02:17:42.030Z,1005.47
2018-08-16T02:18:42.008Z,1005.46
2018-08-16T02:19:42.009Z,1005.50
2018-08-16T02:20:41.986Z,1005.46
2018-08-16T02:21:41.978Z,1005.43
2018-08-16T02:22:41.979Z,1005.45
2018-08-16T02:23:41.955Z,1005.45
2018-08-16T02:24:41.945Z,1005.47
2018-08-16T02:25:41.931Z,1005.42
2018-08-16T02:26:41.922Z,1005.40
2018-08-16T02:27:41.951Z,1005.38
2018-08-16T02:28:41.902Z,1005.42
2018-08-16T02:29:41.888Z,1005.41
2018-08-16T02:30:41.879Z,1005.40
2018-08-16T02:31:41.868Z,1005.42
2018-08-16T02:32:41.854Z,1005.41
2018-08-16T02:33:41.935Z,1005.40
2018-08-16T02:34:41.832Z,1005.38
2018-08-16T02:35:41.860Z,1005.42
2018-08-16T02:36:41.812Z,1005.41
2018-08-16T02:37:41.801Z,1005.42
2018-08-16T02:38:41.785Z,1005.42
2018-08-16T02:39:41.781Z,1005.41
2018-08-16T02:40:41.764Z,1005.40
2018-08-16T02:41:41.772Z,1005.37
2018-08-16T02:42:41.744Z,1005.39
2018-08-16T02:43:41.751Z,1005.36
2018-08-16T02:44:41.721Z,1005.37
2018-08-16T02:45:41.711Z,1005.41
2018-08-16T02:46:41.697Z,1005.38
2018-08-16T02:47:41.686Z,1005.39
2018-08-16T02:48:41.720Z,1005.40
2018-08-16T02:49:41.676Z,1005.46
2018-08-16T02:50:41.652Z,1005.43
2018-08-16T02:51:41.639Z,1005.38
2018-08-16T02:52:41.636Z,1005.40
2018-08-16T02:53:41.618Z,1005.39
2018-08-16T02:54:41.627Z,1005.39
2018-08-16T02:55:41.593Z,1005.35
2018-08-16T02:56:41.584Z,1005.34
2018-08-16T02:57:41.575Z,1005.34
2018-08-16T02:58:41.559Z,1005.37
2018-08-16T02:59:41.551Z,1005.37
2018-08-16T03:00:41.556Z,1005.34
2018-08-16T03:01:41.530Z,1005.38
2018-08-16T03:02:41.514Z,1005.37
2018-08-16T03:03:41.507Z,1005.36
2018-08-16T03:04:41.495Z,1005.36
2018-08-16T03:05:41.485Z,1005.35
2018-08-16T03:06:41.495Z,1005.34
2018-08-16T03:07:41.463Z,1005.31
2018-08-16T03:08:41.450Z,1005.29
2018-08-16T03:09:41.435Z,1005.28
2018-08-16T03:10:41.424Z,1005.24
2018-08-16T03:11:41.414Z,1005.23
2018-08-16T03:12:41.441Z,1005.25
2018-08-16T03:13:41.394Z,1005.21
2018-08-16T03:14:41.383Z,1005.18
2018-08-16T03:15:41.368Z,1005.18
2018-08-16T03:16:41.357Z,1005.18
2018-08-16T03:17:41.345Z,1005.17
2018-08-16T03:18:41.352Z,1005.17
2018-08-16T03:19:41.323Z,1005.18
2018-08-16T03:20:41.315Z,1005.17
2018-08-16T03:21:41.304Z,1005.13
2018-08-16T03:22:41.289Z,1005.12
2018-08-16T03:23:41.279Z,1005.14
2018-08-16T03:24:41.280Z,1005.08
2018-08-16T03:25:41.255Z,1005.08
2018-08-16T03:26:41.243Z,1005.14
2018-08-16T03:27:41.235Z,1005.11
2018-08-16T03:28:41.265Z,1005.10
2018-08-16T03:29:41.213Z,1005.05
2018-08-16T03:30:41.203Z,1005.05
2018-08-16T03:31:41.189Z,1005.10
2018-08-16T03:32:41.177Z,1005.06
2018-08-16T03:33:41.170Z,1005.08
2018-08-16T03:34:41.171Z,1005.06
2018-08-16T03:35:41.147Z,1005.06
2018-08-16T03:36:41.136Z,1005.05
2018-08-16T03:37:41.130Z,1005.02
2018-08-16T03:38:41.110Z,1005.03
2018-08-16T03:39:41.114Z,1005.02
2018-08-16T03:40:41.090Z,1004.99
2018-08-16T03:41:41.092Z,1004.98
2018-08-16T03:42:41.065Z,1004.95
2018-08-16T03:43:41.055Z,1004.94
2018-08-16T03:44:41.043Z,1004.95
2018-08-16T03:45:41.034Z,1004.92
2018-08-16T03:46:41.021Z,1004.93
2018-08-16T03:47:41.021Z,1004.94
2018-08-16T03:48:40.999Z,1004.96
2018-08-16T03:49:40.989Z,1004.95
2018-08-16T03:50:40.995Z,1004.92
2018-08-16T03:51:40.968Z,1004.95
2018-08-16T03:52:40.954Z,1004.93
2018-08-16T03:53:40.946Z,1004.94
2018-08-16T03:54:40.936Z,1004.95
2018-08-16T03:55:40.947Z,1004.93
2018-08-16T03:56:40.915Z,1004.94
2018-08-16T03:57:40.905Z,1004.92
2018-08-16T03:58:40.892Z,1004.96
2018-08-16T03:59:40.882Z,1004.94
2018-08-16T04:00:40.871Z,1004.95
2018-08-16T04:01:40.879Z,1004.97
2018-08-16T04:02:40.848Z,1004.96
2018-08-16T04:03:40.839Z,1004.98
2018-08-16T04:04:40.827Z,1004.92
2018-08-16T04:05:40.817Z,1004.93
2018-08-16T04:06:40.805Z,1004.94
2018-08-16T04:07:40.806Z,1004.94
2018-08-16T04:08:40.785Z,1004.96
2018-08-16T04:09:40.773Z,1004.93
2018-08-16T04:10:40.766Z,1004.94
2018-08-16T04:11:40.795Z,1004.93
2018-08-16T04:12:40.740Z,1004.93
2018-08-16T04:13:40.730Z,1004.93
2018-08-16T04:14:40.723Z,1004.88
2018-08-16T04:15:40.708Z,1004.91
2018-08-16T04:16:40.701Z,1004.88
2018-08-16T04:17:40.700Z,1004.88
2018-08-16T04:18:40.678Z,1004.94
2018-08-16T04:19:40.667Z,1004.91
2018-08-16T04:20:40.654Z,1004.93
2018-08-16T04:21:40.643Z,1004.96
2018-08-16T04:22:40.646Z,1004.95
2018-08-16T04:23:40.720Z,1005.00
2018-08-16T04:24:40.619Z,1004.99
2018-08-16T04:25:40.613Z,1004.98
2018-08-16T04:26:40.594Z,1005.07
2018-08-16T04:27:40.581Z,1005.01
2018-08-16T04:28:40.578Z,1005.02
2018-08-16T04:29:40.556Z,1004.99
2018-08-16T04:30:40.559Z,1004.97
2018-08-16T04:31:40.538Z,1004.98
2018-08-16T04:32:40.525Z,1004.99
2018-08-16T04:33:40.515Z,1005.01
2018-08-16T04:34:40.557Z,1004.98
2018-08-16T04:35:40.509Z,1004.99
2018-08-16T04:36:40.483Z,1005.00
2018-08-16T04:37:40.471Z,1004.99
2018-08-16T04:38:40.466Z,1004.98
2018-08-16T04:39:40.453Z,1004.99
2018-08-16T04:40:40.439Z,1004.95
2018-08-16T04:41:40.486Z,1004.96
2018-08-16T04:42:40.429Z,1005.00
2018-08-16T04:43:40.407Z,1004.93
2018-08-16T04:44:40.398Z,1004.95
2018-08-16T04:45:40.386Z,1004.91
2018-08-16T04:46:40.378Z,1004.95
2018-08-16T04:47:40.374Z,1004.91
2018-08-16T04:48:40.465Z,1004.93
2018-08-16T04:49:40.344Z,1004.88
2018-08-16T04:50:40.331Z,1004.89
2018-08-16T04:51:40.322Z,1004.86
2018-08-16T04:52:40.321Z,1004.91
2018-08-16T04:53:40.310Z,1004.88
2018-08-16T04:54:40.292Z,1004.92
2018-08-16T04:55:40.280Z,1004.93
2018-08-16T04:56:40.269Z,1004.94
2018-08-16T04:57:40.256Z,1004.92
2018-08-16T04:58:40.257Z,1004.91
2018-08-16T04:59:40.236Z,1004.93
2018-08-16T05:00:40.227Z,1004.90
2018-08-16T05:01:40.215Z,1004.93
2018-08-16T05:02:40.206Z,1004.92
2018-08-16T05:03:40.209Z,1004.95
2018-08-16T05:04:40.183Z,1004.96
2018-08-16T05:05:40.171Z,1004.97
2018-08-16T05:06:40.160Z,1004.99
2018-08-16T05:07:40.151Z,1004.98
2018-08-16T05:08:40.143Z,1005.05
2018-08-16T05:09:40.148Z,1004.97
2018-08-16T05:10:40.121Z,1004.99
2018-08-16T05:11:40.112Z,1005.01
2018-08-16T05:12:40.098Z,1005.02
2018-08-16T05:13:40.092Z,1004.99
2018-08-16T05:14:40.123Z,1005.02
2018-08-16T05:15:40.066Z,1005.07
2018-08-16T05:16:40.056Z,1005.03
2018-08-16T05:17:40.044Z,1005.03
2018-08-16T05:18:40.033Z,1005.03
2018-08-16T05:19:40.022Z,1005.01
2018-08-16T05:20:40.024Z,1004.96
2018-08-16T05:21:39.999Z,1004.97
2018-08-16T05:22:39.989Z,1004.98
2018-08-16T05:23:39.978Z,1005.01
2018-08-16T05:24:39.988Z,1005.05
2018-08-16T05:25:39.962Z,1005.00
2018-08-16T05:26:39.946Z,1004.99
2018-08-16T05:27:39.935Z,1005.00
2018-08-16T05:28:39.924Z,1004.96
2018-08-16T05:29:39.912Z,1004.98
2018-08-16T05:30:39.915Z,1004.96
2018-08-16T05:31:39.965Z,1004.98
2018-08-16T05:32:39.881Z,1004.93
2018-08-16T05:33:39.872Z,1004.94
2018-08-16T05:34:39.856Z,1004.93
2018-08-16T05:35:39.883Z,1004.88
2018-08-16T05:36:39.834Z,1004.92
2018-08-16T05:37:39.821Z,1004.92
2018-08-16T05:38:39.812Z,1004.92
2018-08-16T05:39:39.801Z,1004.94
2018-08-16T05:40:39.787Z,1004.95
2018-08-16T05:41:39.790Z,1004.92
2018-08-16T05:42:39.857Z,1004.90
2018-08-16T05:43:39.760Z,1004.90
2018-08-16T05:44:39.744Z,1004.89
2018-08-16T05:45:39.730Z,1004.88
2018-08-16T05:46:39.911Z,1004.90
2018-08-16T05:47:39.769Z,1004.88
2018-08-16T05:48:39.700Z,1004.86
2018-08-16T05:49:39.687Z,1004.85
2018-08-16T05:50:39.699Z,1004.86
2018-08-16T05:51:39.665Z,1004.82
2018-08-16T05:52:39.663Z,1004.90
2018-08-16T05:53:39.650Z,1004.82
2018-08-16T05:54:39.632Z,1004.81
2018-08-16T05:55:39.640Z,1004.82
2018-08-16T05:56:39.608Z,1004.82
2018-08-16T05:57:39.602Z,1004.81
2018-08-16T05:58:39.603Z,1004.83
2018-08-16T05:59:39.584Z,1004.83
2018-08-16T06:00:39.565Z,1004.83
2018-08-16T06:01:39.567Z,1004.79
2018-08-16T06:02:39.541Z,1004.81
2018-08-16T06:03:39.546Z,1004.82
2018-08-16T06:04:39.519Z,1004.77
2018-08-16T06:05:39.549Z,1004.71
2018-08-16T06:06:39.498Z,1004.73
2018-08-16T06:07:39.615Z,1004.71
2018-08-16T06:08:39.479Z,1004.70
2018-08-16T06:09:39.464Z,1004.67
2018-08-16T06:10:39.459Z,1004.68
2018-08-16T06:11:39.469Z,1004.69
2018-08-16T06:12:39.437Z,1004.74
2018-08-16T06:13:39.426Z,1004.68
2018-08-16T06:14:39.412Z,1004.64
2018-08-16T06:15:39.408Z,1004.66
2018-08-16T06:16:39.394Z,1004.70
2018-08-16T06:17:39.399Z,1004.70
2018-08-16T06:18:39.370Z,1004.68
2018-08-16T06:19:39.364Z,1004.71
2018-08-16T06:20:39.360Z,1004.69
2018-08-16T06:21:39.336Z,1004.70
2018-08-16T06:22:39.325Z,1004.68
2018-08-16T06:23:39.313Z,1004.73
2018-08-16T06:24:39.306Z,1004.73
2018-08-16T06:25:39.308Z,1004.66
2018-08-16T06:26:39.286Z,1004.71
2018-08-16T06:27:39.273Z,1004.69
2018-08-16T06:28:39.259Z,1004.68
2018-08-16T06:29:39.261Z,1004.63
2018-08-16T06:30:39.238Z,1004.66
2018-08-16T06:31:39.313Z,1004.63
2018-08-16T06:32:39.216Z,1004.64
2018-08-16T06:33:39.210Z,1004.66
2018-08-16T06:34:39.215Z,1004.68
2018-08-16T06:35:39.185Z,1004.65
2018-08-16T06:36:39.174Z,1004.65
2018-08-16T06:37:39.164Z,1004.67
2018-08-16T06:38:39.150Z,1004.63
2018-08-16T06:39:39.141Z,1004.56
2018-08-16T06:40:39.142Z,1004.59
2018-08-16T06:41:39.117Z,1004.58
2018-08-16T06:42:39.108Z,1004.60
2018-08-16T06:43:39.096Z,1004.58
2018-08-16T06:44:39.086Z,1004.60
2018-08-16T06:45:39.091Z,1004.59
2018-08-16T06:46:39.064Z,1004.61
2018-08-16T06:47:39.072Z,1004.57
2018-08-16T06:48:39.042Z,1004.52
2018-08-16T06:49:39.030Z,1004.49
2018-08-16T06:50:39.018Z,1004.55
2018-08-16T06:51:39.007Z,1004.57
2018-08-16T06:52:39.134Z,1004.55
2018-08-16T06:53:39.001Z,1004.53
2018-08-16T06:54:38.981Z,1004.57
2018-08-16T06:55:38.964Z,1004.61
2018-08-16T06:56:38.968Z,1004.59
2018-08-16T06:57:38.945Z,1004.62
2018-08-16T06:58:38.935Z,1004.59
2018-08-16T06:59:38.926Z,1004.59
2018-08-16T07:00:38.912Z,1004.61
2018-08-16T07:01:38.922Z,1004.62
2018-08-16T07:02:38.891Z,1004.60
2018-08-16T07:03:38.881Z,1004.61
2018-08-16T07:04:38.873Z,1004.63
2018-08-16T07:05:38.861Z,1004.68
2018-08-16T07:06:38.848Z,1004.62
2018-08-16T07:07:38.855Z,1004.62
2018-08-16T07:08:38.827Z,1004.60
2018-08-16T07:09:38.819Z,1004.61
2018-08-16T07:10:38.806Z,1004.64
2018-08-16T07:11:38.793Z,1004.65
2018-08-16T07:12:38.796Z,1004.62
2018-08-16T07:13:38.771Z,1004.64
2018-08-16T07:14:38.761Z,1004.61
2018-08-16T07:15:38.767Z,1004.64
2018-08-16T07:16:38.737Z,1004.62
2018-08-16T07:17:38.727Z,1004.65
2018-08-16T07:18:38.722Z,1004.67
2018-08-16T07:19:38.705Z,1004.68
2018-08-16T07:20:38.698Z,1004.69
2018-08-16T07:21:38.709Z,1004.71
2018-08-16T07:22:38.678Z,1004.66
2018-08-16T07:23:38.661Z,1004.68
2018-08-16T07:24:38.665Z,1004.72
2018-08-16T07:25:38.643Z,1004.69
2018-08-16T07:26:38.633Z,1004.67
2018-08-16T07:27:38.647Z,1004.68
2018-08-16T07:28:38.611Z,1004.69
2018-08-16T07:29:38.600Z,1004.69
2018-08-16T07:30:38.587Z,1004.67
2018-08-16T07:31:38.576Z,1004.65
2018-08-16T07:32:38.567Z,1004.64
2018-08-16T07:33:38.570Z,1004.63
2018-08-16T07:34:38.547Z,1004.65
2018-08-16T07:35:38.537Z,1004.64
2018-08-16T07:36:38.525Z,1004.60
2018-08-16T07:37:38.515Z,1004.62
2018-08-16T07:38:38.523Z,1004.54
2018-08-16T07:39:38.496Z,1004.57
2018-08-16T07:40:38.482Z,1004.53
2018-08-16T07:41:38.472Z,1004.53
2018-08-16T07:42:38.461Z,1004.53
2018-08-16T07:43:38.450Z,1004.55
2018-08-16T07:44:38.455Z,1004.54
2018-08-16T07:45:38.458Z,1004.60
2018-08-16T07:46:38.421Z,1004.54
2018-08-16T07:47:38.423Z,1004.49
2018-08-16T07:48:38.395Z,1004.52
2018-08-16T07:49:38.397Z,1004.51
2018-08-16T07:50:38.377Z,1004.57
2018-08-16T07:51:38.588Z,1004.50
2018-08-16T07:52:38.372Z,1004.58
2018-08-16T07:53:38.342Z,1004.51
2018-08-16T07:54:38.331Z,1004.51
2018-08-16T07:55:38.323Z,1004.49
2018-08-16T07:56:38.309Z,1004.51
2018-08-16T07:57:38.302Z,1004.53
2018-08-16T07:58:38.301Z,1004.56
2018-08-16T07:59:38.280Z,1004.54
2018-08-16T08:00:38.270Z,1004.52
2018-08-16T08:01:38.285Z,1004.51
2018-08-16T08:02:38.244Z,1004.50
2018-08-16T08:03:38.237Z,1004.56
2018-08-16T08:04:38.226Z,1004.50
2018-08-16T08:05:38.216Z,1004.54
2018-08-16T08:06:38.209Z,1004.47
2018-08-16T08:07:38.211Z,1004.49
2018-08-16T08:08:38.183Z,1004.48
2018-08-16T08:09:38.377Z,1004.48
2018-08-16T08:10:38.162Z,1004.50
2018-08-16T08:11:38.155Z,1004.48
2018-08-16T08:12:38.137Z,1004.50
2018-08-16T08:13:38.140Z,1004.55
2018-08-16T08:14:38.137Z,1004.58
2018-08-16T08:15:38.112Z,1004.52
2018-08-16T08:16:38.098Z,1004.52
2018-08-16T08:17:38.085Z,1004.51
2018-08-16T08:18:38.074Z,1004.53
2018-08-16T08:19:38.066Z,1004.51
2018-08-16T08:20:38.071Z,1004.49
2018-08-16T08:21:38.043Z,1004.52
2018-08-16T08:22:38.034Z,1004.51
2018-08-16T08:23:38.035Z,1004.54
2018-08-16T08:24:38.033Z,1004.53
2018-08-16T08:25:38.000Z,1004.49
2018-08-16T08:26:37.992Z,1004.50
2018-08-16T08:27:37.981Z,1004.54
2018-08-16T08:28:37.968Z,1004.55
2018-08-16T08:29:37.957Z,1004.48
2018-08-16T08:30:37.964Z,1004.54
2018-08-16T08:31:38.032Z,1004.51
2018-08-16T08:32:37.929Z,1004.49
2018-08-16T08:33:37.916Z,1004.47
2018-08-16T08:34:37.908Z,1004.51
2018-08-16T08:35:37.910Z,1004.44
2018-08-16T08:36:37.883Z,1004.47
2018-08-16T08:37:37.876Z,1004.53
2018-08-16T08:38:37.893Z,1004.48
2018-08-16T08:39:37.855Z,1004.46
2018-08-16T08:40:37.868Z,1004.44
2018-08-16T08:41:37.832Z,1004.52
2018-08-16T08:42:37.826Z,1004.48
2018-08-16T08:43:37.814Z,1004.49
2018-08-16T08:44:37.803Z,1004.50
2018-08-16T08:45:37.789Z,1004.49
2018-08-16T08:46:37.802Z,1004.46
2018-08-16T08:47:37.771Z,1004.50
2018-08-16T08:48:37.760Z,1004.48
2018-08-16T08:49:37.753Z,1004.42
2018-08-16T08:50:37.737Z,1004.45
2018-08-16T08:51:37.726Z,1004.43
2018-08-16T08:52:37.731Z,1004.41
2018-08-16T08:53:37.706Z,1004.40
2018-08-16T08:54:37.695Z,1004.42
2018-08-16T08:55:37.688Z,1004.41
2018-08-16T08:56:37.677Z,1004.40
2018-08-16T08:57:37.680Z,1004.46
2018-08-16T08:58:37.658Z,1004.39
2018-08-16T08:59:38.497Z,1004.39
2018-08-16T09:00:37.633Z,1004.39
2018-08-16T09:01:37.622Z,1004.42
2018-08-16T09:02:37.634Z,1004.38
2018-08-16T09:03:37.603Z,1004.39
2018-08-16T09:04:37.595Z,1004.35
2018-08-16T09:05:37.581Z,1004.29
2018-08-16T09:06:37.571Z,1004.36
2018-08-16T09:07:37.562Z,1004.37
2018-08-16T09:08:37.568Z,1004.42
2018-08-16T09:09:37.541Z,1004.41
2018-08-16T09:10:37.535Z,1004.37
2018-08-16T09:11:37.520Z,1004.34
2018-08-16T09:12:37.509Z,1004.31
2018-08-16T09:13:37.522Z,1004.38
2018-08-16T09:14:37.489Z,1004.35
2018-08-16T09:15:37.485Z,1004.34
2018-08-16T09:16:37.469Z,1004.36
2018-08-16T09:17:37.458Z,1004.35
2018-08-16T09:18:37.474Z,1004.39
2018-08-16T09:19:37.438Z,1004.31
2018-08-16T09:20:37.428Z,1004.32
2018-08-16T09:21:37.419Z,1004.35
2018-08-16T09:22:37.409Z,1004.35
2018-08-16T09:23:37.396Z,1004.34
2018-08-16T09:24:37.405Z,1004.29
2018-08-16T09:25:37.376Z,1004.29
2018-08-16T09:26:37.371Z,1004.28
2018-08-16T09:27:37.358Z,1004.35
2018-08-16T09:28:37.349Z,1004.28
2018-08-16T09:29:37.357Z,1004.24
2018-08-16T09:30:37.326Z,1004.26
2018-08-16T09:31:37.426Z,1004.28
2018-08-16T09:32:37.311Z,1004.27
2018-08-16T09:33:37.297Z,1004.25
2018-08-16T09:34:37.288Z,1004.25
2018-08-16T09:35:37.293Z,1004.26
2018-08-16T09:36:37.268Z,1004.23
2018-08-16T09:37:37.258Z,1004.26
2018-08-16T09:38:37.250Z,1004.27
2018-08-16T09:39:37.340Z,1003.94
2018-08-16T09:40:37.245Z,1003.83
2018-08-16T09:41:37.216Z,1004.19
2018-08-16T09:42:37.204Z,1004.21
2018-08-16T09:43:37.196Z,1004.11
2018-08-16T09:44:37.183Z,1004.13
2018-08-16T09:45:37.254Z,1004.13
2018-08-16T09:46:37.177Z,1004.13
2018-08-16T09:47:37.154Z,1004.16
2018-08-16T09:48:37.141Z,1004.12
2018-08-16T09:49:37.131Z,1004.11
2018-08-16T09:50:37.124Z,1004.09
2018-08-16T09:51:37.138Z,1004.18
2018-08-16T09:52:37.119Z,1004.17
2018-08-16T09:53:37.091Z,1004.17
2018-08-16T09:54:37.082Z,1004.11
2018-08-16T09:55:37.068Z,1004.13
2018-08-16T09:56:37.059Z,1004.09
2018-08-16T09:57:37.056Z,1004.03
2018-08-16T09:58:37.056Z,1004.06
2018-08-16T09:59:37.029Z,1003.87
2018-08-16T10:00:37.023Z,1003.94
2018-08-16T10:01:37.011Z,1003.92
2018-08-16T10:02:36.998Z,1004.01
2018-08-16T10:03:37.005Z,1003.97
2018-08-16T10:04:36.980Z,1003.69
2018-08-16T10:05:36.971Z,1003.94
2018-08-16T10:06:36.958Z,1003.96
2018-08-16T10:07:36.965Z,1003.94
2018-08-16T10:08:36.937Z,1003.84
2018-08-16T10:09:36.929Z,1003.81
2018-08-16T10:10:36.933Z,1003.85
2018-08-16T10:11:36.907Z,1003.90
2018-08-16T10:12:36.899Z,1003.91
2018-08-16T10:13:36.931Z,1003.90
2018-08-16T10:14:36.881Z,1003.88
2018-08-16T10:15:36.880Z,1003.90
2018-08-16T10:16:36.856Z,1003.92
2018-08-16T10:17:36.845Z,1003.87
2018-08-16T10:18:36.839Z,1003.89
2018-08-16T10:19:36.825Z,1003.89
2018-08-16T10:20:36.831Z,1003.83
2018-08-16T10:21:36.807Z,1003.75
2018-08-16T10:22:36.816Z,1003.73
2018-08-16T10:23:36.785Z,1003.65
2018-08-16T10:24:36.777Z,1003.68
2018-08-16T10:25:36.764Z,1003.68
2018-08-16T10:26:36.753Z,1003.73
2018-08-16T10:27:36.764Z,1003.74
2018-08-16T10:28:36.749Z,1003.75
2018-08-16T10:29:36.728Z,1003.79
2018-08-16T10:30:36.712Z,1003.76
2018-08-16T10:31:36.718Z,1003.78
2018-08-16T10:32:36.708Z,1003.75
2018-08-16T10:33:36.682Z,1003.74
2018-08-16T10:34:36.686Z,1003.72
2018-08-16T10:35:36.668Z,1003.77
2018-08-16T10:36:36.651Z,1003.70
2018-08-16T10:37:36.643Z,1003.77
2018-08-16T10:38:36.632Z,1003.74
2018-08-16T10:39:36.637Z,1003.65
2018-08-16T10:40:36.612Z,1003.73
2018-08-16T10:41:36.600Z,1003.66
2018-08-16T10:42:36.592Z,1003.69
2018-08-16T10:43:36.582Z,1003.66
2018-08-16T10:44:36.756Z,1003.67
2018-08-16T10:45:36.562Z,1003.66
2018-08-16T10:46:36.553Z,1003.70
2018-08-16T10:47:36.543Z,1003.75
2018-08-16T10:48:36.532Z,1003.70
2018-08-16T10:49:36.521Z,1003.76
2018-08-16T10:50:36.536Z,1003.64
2018-08-16T10:51:36.500Z,1003.67
2018-08-16T10:52:36.497Z,1003.60
2018-08-16T10:53:36.484Z,1003.65
2018-08-16T10:54:36.477Z,1003.60
2018-08-16T10:55:36.460Z,1003.65
2018-08-16T10:56:36.464Z,1003.63
2018-08-16T10:57:36.439Z,1003.62
2018-08-16T10:58:36.429Z,1003.63
2018-08-16T10:59:36.420Z,1003.70
2018-08-16T11:00:36.412Z,1003.69
2018-08-16T11:01:36.420Z,1003.71
2018-08-16T11:02:36.389Z,1003.63
2018-08-16T11:03:36.382Z,1003.64
2018-08-16T11:04:36.381Z,1003.67
2018-08-16T11:05:36.359Z,1003.61
2018-08-16T11:06:36.350Z,1003.63
2018-08-16T11:07:36.373Z,1003.65
2018-08-16T11:08:36.336Z,1003.62
2018-08-16T11:09:36.322Z,1003.58
2018-08-16T11:10:36.315Z,1003.45
2018-08-16T11:11:36.300Z,1003.59
2018-08-16T11:12:36.294Z,1003.63
2018-08-16T11:13:36.294Z,1003.64
2018-08-16T11:14:36.270Z,1003.62
2018-08-16T11:15:36.285Z,1003.54
2018-08-16T11:16:36.253Z,1003.62
2018-08-16T11:17:36.244Z,1003.54
2018-08-16T11:18:36.231Z,1003.53
2018-08-16T11:19:36.221Z,1003.53
2018-08-16T11:20:36.213Z,1003.47
2018-08-16T11:21:36.225Z,1003.31
2018-08-16T11:22:36.194Z,1003.36
2018-08-16T11:23:36.183Z,1003.42
2018-08-16T11:24:36.172Z,1003.51
2018-08-16T11:25:36.164Z,1003.45
2018-08-16T11:26:36.152Z,1003.45
2018-08-16T11:27:36.157Z,1003.43
2018-08-16T11:28:36.141Z,1003.44
2018-08-16T11:29:36.125Z,1003.53
2018-08-16T11:30:36.112Z,1003.44
2018-08-16T11:31:36.104Z,1003.42
2018-08-16T11:32:36.116Z,1003.35
2018-08-16T11:33:36.079Z,1003.35
2018-08-16T11:34:36.072Z,1003.41
2018-08-16T11:35:36.065Z,1003.37
2018-08-16T11:36:36.055Z,1003.26
2018-08-16T11:37:36.041Z,1003.40
2018-08-16T11:38:36.047Z,1003.21
2018-08-16T11:39:36.022Z,1003.28
2018-08-16T11:40:36.018Z,1003.32
2018-08-16T11:41:36.005Z,1003.30
2018-08-16T11:42:35.995Z,1003.31
2018-08-16T11:43:36.001Z,1003.29
2018-08-16T11:44:35.976Z,1003.29
2018-08-16T11:45:35.965Z,1003.35
2018-08-16T11:46:35.958Z,1003.31
2018-08-16T11:47:35.942Z,1003.25
2018-08-16T11:48:35.948Z,1003.14
2018-08-16T11:49:35.937Z,1003.16
2018-08-16T11:50:35.914Z,1003.25
2018-08-16T11:51:35.903Z,1003.29
2018-08-16T11:52:35.897Z,1003.19
2018-08-16T11:53:35.895Z,1003.15
2018-08-16T11:54:35.873Z,1003.16
2018-08-16T11:55:35.865Z,1003.18
2018-08-16T11:56:35.856Z,1003.26
2018-08-16T11:57:35.859Z,1003.24
2018-08-16T11:58:35.907Z,1003.23
2018-08-16T11:59:35.845Z,1003.25
2018-08-16T12:00:35.812Z,1003.22
2018-08-16T12:01:35.802Z,1003.20
2018-08-16T12:02:35.793Z,1003.20
2018-08-16T12:03:35.781Z,1003.21
2018-08-16T12:04:35.775Z,1003.18
2018-08-16T12:05:35.780Z,1003.22